createdAt,value
2022-08-01T00:00:48.473Z,99371.78
2022-08-01T00:04:49.878Z,99373.75
2022-08-01T00:08:51.398Z,99372.19
2022-08-01T00:12:52.989Z,99377.75
2022-08-01T00:16:54.436Z,99386.19
2022-08-01T00:20:55.898Z,99385.47
2022-08-01T00:24:57.409Z,99385.66
2022-08-01T00:28:58.858Z,99392.72
2022-08-01T00:33:00.327Z,99400.91
2022-08-01T00:37:01.840Z,99387.72
2022-08-01T00:41:03.514Z,99391.38
2022-08-01T00:45:05.630Z,99385.56
2022-08-01T00:49:07.257Z,99384.19
2022-08-01T00:53:18.898Z,99371.44
2022-08-01T00:57:39.972Z,99369.00
2022-08-01T01:01:46.820Z,99367.22
2022-08-01T01:06:14.049Z,99366.38
2022-08-01T01:10:49.073Z,99352.44
2022-08-01T01:15:16.647Z,99362.44
2022-08-01T01:19:24.389Z,99363.59
2022-08-01T01:23:55.509Z,99370.63
2022-08-01T01:28:09.382Z,99373.28
2022-08-01T01:32:15.481Z,99374.19
2022-08-01T01:36:20.295Z,99371.75
2022-08-01T01:40:24.762Z,99370.06
2022-08-01T01:44:28.598Z,99371.91
2022-08-01T01:48:30.281Z,99371.09
2022-08-01T01:52:33.029Z,99380.84
2022-08-01T01:56:36.193Z,99376.66
2022-08-01T02:00:38.310Z,99374.19
2022-08-01T02:04:43.509Z,99370.63
2022-08-01T02:08:47.160Z,99377.63
2022-08-01T02:12:51.190Z,99380.06
2022-08-01T02:16:52.586Z,99379.13
2022-08-01T02:20:56.673Z,99373.88
2022-08-01T02:25:10.805Z,99380.97
2022-08-01T02:29:19.180Z,99386.47
2022-08-01T02:33:35.618Z,99390.38
2022-08-01T02:37:41.899Z,99385.22
2022-08-01T02:41:50.437Z,99384.59
2022-08-01T02:45:55.085Z,99371.50
2022-08-01T02:49:57.356Z,99377.56
2022-08-01T02:53:59.956Z,99380.03
2022-08-01T02:58:02.774Z,99376.53
2022-08-01T03:02:06.144Z,99372.41
2022-08-01T03:06:10.701Z,99372.41
2022-08-01T03:10:14.017Z,99380.34
2022-08-01T03:14:16.856Z,99370.81
2022-08-01T03:18:19.358Z,99383.81
2022-08-01T03:22:24.080Z,99374.38
2022-08-01T03:26:29.644Z,99375.28
2022-08-01T03:30:33.472Z,99379.28
2022-08-01T03:34:35.399Z,99379.44
2022-08-01T03:38:40.006Z,99387.25
2022-08-01T03:42:51.206Z,99388.00
2022-08-01T03:47:01.817Z,99386.00
2022-08-01T03:51:04.905Z,99379.91
2022-08-01T03:55:08.445Z,99390.38
2022-08-01T03:59:10.611Z,99383.47
2022-08-01T04:03:13.594Z,99387.00
2022-08-01T04:07:32.000Z,99394.06
2022-08-01T04:11:34.176Z,99392.25
2022-08-01T04:15:35.784Z,99392.09
2022-08-01T04:19:37.836Z,99398.97
2022-08-01T04:23:42.701Z,99401.53
2022-08-01T04:27:49.863Z,99400.88
2022-08-01T04:31:55.461Z,99405.25
2022-08-01T04:36:03.792Z,99400.00
2022-08-01T04:40:08.149Z,99408.84
2022-08-01T04:44:10.021Z,99411.47
2022-08-01T04:48:12.209Z,99413.03
2022-08-01T04:52:18.862Z,99424.13
2022-08-01T04:56:23.771Z,99423.56
2022-08-01T05:00:25.427Z,99419.47
2022-08-01T05:04:27.183Z,99409.09
2022-08-01T05:08:28.628Z,99417.00
2022-08-01T05:12:30.234Z,99417.19
2022-08-01T05:16:34.269Z,99408.06
2022-08-01T05:20:36.005Z,99414.59
2022-08-01T05:24:40.304Z,99417.78
2022-08-01T05:28:43.378Z,99420.13
2022-08-01T05:32:44.925Z,99424.47
2022-08-01T05:36:47.332Z,99419.94
2022-08-01T05:40:48.965Z,99426.97
2022-08-01T05:44:52.136Z,99421.56
2022-08-01T05:48:53.697Z,99429.19
2022-08-01T05:52:55.242Z,99436.84
2022-08-01T05:57:00.495Z,99441.13
2022-08-01T06:01:02.697Z,99442.56
2022-08-01T06:05:04.416Z,99447.56
2022-08-01T06:09:05.808Z,99439.59
2022-08-01T06:13:07.257Z,99447.13
2022-08-01T06:17:08.732Z,99453.03
2022-08-01T06:21:10.228Z,99448.41
2022-08-01T06:25:11.622Z,99452.09
2022-08-01T06:29:14.063Z,99452.06
2022-08-01T06:33:15.466Z,99448.38
2022-08-01T06:37:17.150Z,99456.28
2022-08-01T06:41:18.903Z,99450.34
2022-08-01T06:45:23.221Z,99447.72
2022-08-01T06:49:25.361Z,99450.78
2022-08-01T06:53:27.024Z,99453.72
2022-08-01T06:57:28.555Z,99453.44
2022-08-01T07:01:30.774Z,99454.47
2022-08-01T07:05:36.577Z,99453.13
2022-08-01T07:09:38.289Z,99452.16
2022-08-01T07:13:45.687Z,99450.19
2022-08-01T07:17:47.276Z,99447.69
2022-08-01T07:21:50.033Z,99450.38
2022-08-01T07:25:55.944Z,99442.03
2022-08-01T07:29:59.580Z,99446.69
2022-08-01T07:34:01.424Z,99446.94
2022-08-01T07:38:02.797Z,99448.00
2022-08-01T07:42:07.218Z,99450.84
2022-08-01T07:46:09.978Z,99450.41
2022-08-01T07:50:13.387Z,99448.41
2022-08-01T07:54:15.081Z,99447.22
2022-08-01T07:58:16.912Z,99457.22
2022-08-01T08:02:18.560Z,99454.84
2022-08-01T08:06:19.989Z,99454.16
2022-08-01T08:10:21.468Z,99463.59
2022-08-01T08:14:25.681Z,99455.81
2022-08-01T08:18:34.469Z,99456.34
2022-08-01T08:22:36.903Z,99467.31
2022-08-01T08:26:38.759Z,99460.84
2022-08-01T08:30:41.806Z,99465.13
2022-08-01T08:34:43.781Z,99472.50
2022-08-01T08:38:45.263Z,99473.22
2022-08-01T08:42:48.503Z,99463.19
2022-08-01T08:46:52.262Z,99460.38
2022-08-01T08:50:54.321Z,99459.97
2022-08-01T08:54:57.412Z,99462.75
2022-08-01T08:58:59.245Z,99462.63
2022-08-01T09:03:00.702Z,99462.78
2022-08-01T09:07:04.974Z,99456.69
2022-08-01T09:11:06.670Z,99460.50
2022-08-01T09:15:08.514Z,99470.47
2022-08-01T09:19:15.924Z,99456.25
2022-08-01T09:23:54.090Z,99463.38
2022-08-01T09:28:04.423Z,99470.47
2022-08-01T09:32:07.381Z,99470.31
2022-08-01T09:36:09.229Z,99469.06
2022-08-01T09:40:14.767Z,99479.91
2022-08-01T09:44:18.690Z,99476.31
2022-08-01T09:48:55.341Z,99464.59
2022-08-01T09:52:58.021Z,99467.66
2022-08-01T09:57:16.176Z,99472.78
2022-08-01T10:01:17.565Z,99472.72
2022-08-01T10:05:21.350Z,99477.75
2022-08-01T10:09:35.996Z,99473.53
2022-08-01T10:13:41.841Z,99482.03
2022-08-01T10:17:54.557Z,99475.47
2022-08-01T10:22:00.209Z,99471.97
2022-08-01T10:26:02.902Z,99462.22
2022-08-01T10:30:19.983Z,99454.97
2022-08-01T10:34:24.766Z,99457.94
2022-08-01T10:38:28.222Z,99461.63
2022-08-01T10:42:30.280Z,99448.44
2022-08-01T10:46:32.076Z,99441.44
2022-08-01T10:50:39.429Z,99451.44
2022-08-01T10:54:52.245Z,99440.94
2022-08-01T10:59:06.141Z,99442.44
2022-08-01T11:03:12.813Z,99446.72
2022-08-01T11:07:21.953Z,99445.69
2022-08-01T11:11:27.365Z,99442.88
2022-08-01T11:15:31.065Z,99447.56
2022-08-01T11:20:09.649Z,99448.25
2022-08-01T11:24:11.158Z,99452.81
2022-08-01T11:28:15.588Z,99459.22
2022-08-01T11:32:27.086Z,99453.72
2022-08-01T11:36:55.956Z,99449.13
2022-08-01T11:41:10.220Z,99449.56
2022-08-01T11:45:18.105Z,99461.56
2022-08-01T11:49:35.201Z,99446.06
2022-08-01T11:53:47.318Z,99446.88
2022-08-01T11:57:49.481Z,99442.81
2022-08-01T12:01:51.239Z,99448.56
2022-08-01T12:05:53.269Z,99436.22
2022-08-01T12:09:59.370Z,99437.63
2022-08-01T12:14:02.874Z,99436.50
2022-08-01T12:18:06.990Z,99441.50
2022-08-01T12:22:15.557Z,99446.56
2022-08-01T12:26:29.153Z,99430.50
2022-08-01T12:30:37.938Z,99439.41
2022-08-01T12:34:39.784Z,99443.53
2022-08-01T12:38:41.301Z,99435.41
2022-08-01T12:42:44.768Z,99435.13
2022-08-01T12:46:46.474Z,99425.50
2022-08-01T12:50:53.301Z,99440.63
2022-08-01T12:55:14.422Z,99430.13
2022-08-01T12:59:23.821Z,99436.78
2022-08-01T13:03:25.273Z,99420.56
2022-08-01T13:07:46.029Z,99411.94
2022-08-01T13:12:03.878Z,99411.47
2022-08-01T13:16:08.586Z,99423.69
2022-08-01T13:20:34.862Z,99418.66
2022-08-01T13:24:36.313Z,99427.31
2022-08-01T13:28:39.276Z,99418.66
2022-08-01T13:32:41.661Z,99417.56
2022-08-01T13:36:49.026Z,99412.28
2022-08-01T13:40:59.230Z,99417.31
2022-08-01T13:45:03.030Z,99411.13
2022-08-01T13:49:15.946Z,99407.94
2022-08-01T13:53:18.635Z,99410.31
2022-08-01T13:57:20.150Z,99399.00
2022-08-01T14:01:21.878Z,99394.72
2022-08-01T14:05:23.367Z,99393.66
2022-08-01T14:09:25.032Z,99400.59
2022-08-01T14:13:36.981Z,99395.31
2022-08-01T14:17:38.591Z,99409.59
2022-08-01T14:21:40.010Z,99415.03
2022-08-01T14:26:03.659Z,99408.84
2022-08-01T14:30:08.057Z,99410.53
2022-08-01T14:34:09.926Z,99406.56
2022-08-01T14:38:11.455Z,99415.19
2022-08-01T14:42:23.200Z,99412.63
2022-08-01T14:46:24.684Z,99418.91
2022-08-01T14:50:27.658Z,99421.00
2022-08-01T14:54:29.589Z,99411.28
2022-08-01T14:58:31.493Z,99410.31
2022-08-01T15:02:33.009Z,99410.66
2022-08-01T15:06:34.533Z,99408.84
2022-08-01T15:10:36.041Z,99419.00
2022-08-01T15:14:49.385Z,99426.31
2022-08-01T15:18:50.775Z,99413.13
2022-08-01T15:22:52.846Z,99416.91
2022-08-01T15:26:54.430Z,99415.72
2022-08-01T15:30:55.909Z,99416.59
2022-08-01T15:34:57.733Z,99410.16
2022-08-01T15:38:59.242Z,99411.88
2022-08-01T15:43:01.099Z,99416.59
2022-08-01T15:47:04.129Z,99411.66
2022-08-01T15:51:05.823Z,99408.78
2022-08-01T15:55:08.186Z,99399.22
2022-08-01T15:59:09.842Z,99392.81
2022-08-01T16:03:11.365Z,99381.44
2022-08-01T16:07:12.971Z,99383.56
2022-08-01T16:11:14.733Z,99386.50
2022-08-01T16:15:16.510Z,99387.25
2022-08-01T16:19:19.442Z,99378.59
2022-08-01T16:23:21.217Z,99379.81
2022-08-01T16:27:27.071Z,99376.59
2022-08-01T16:31:36.641Z,99385.97
2022-08-01T16:35:45.189Z,99391.44
2022-08-01T16:39:48.289Z,99383.13
2022-08-01T16:43:53.848Z,99382.81
2022-08-01T16:47:56.841Z,99377.97
2022-08-01T16:51:58.243Z,99374.13
2022-08-01T16:56:00.090Z,99379.91
2022-08-01T17:00:01.822Z,99378.88
2022-08-01T17:04:03.429Z,99386.84
2022-08-01T17:08:06.434Z,99389.63
2022-08-01T17:12:08.539Z,99381.19
2022-08-01T17:16:11.576Z,99381.44
2022-08-01T17:20:13.082Z,99379.38
2022-08-01T17:24:16.727Z,99384.03
2022-08-01T17:28:18.337Z,99388.66
2022-08-01T17:32:19.902Z,99397.94
2022-08-01T17:36:21.474Z,99394.63
2022-08-01T17:40:39.780Z,99395.63
2022-08-01T17:44:41.837Z,99396.00
2022-08-01T17:48:50.823Z,99397.78
2022-08-01T17:52:52.417Z,99409.53
2022-08-01T17:56:53.954Z,99405.09
2022-08-01T18:00:55.366Z,99407.84
2022-08-01T18:04:56.797Z,99400.16
2022-08-01T18:08:59.710Z,99403.75
2022-08-01T18:13:04.045Z,99414.72
2022-08-01T18:17:08.281Z,99412.53
2022-08-01T18:21:12.957Z,99411.34
2022-08-01T18:25:14.805Z,99410.94
2022-08-01T18:29:16.592Z,99407.88
2022-08-01T18:33:24.906Z,99404.91
2022-08-01T18:37:27.502Z,99400.19
2022-08-01T18:41:34.426Z,99401.47
2022-08-01T18:45:39.545Z,99409.78
2022-08-01T18:49:43.973Z,99411.16
2022-08-01T18:53:47.016Z,99410.81
2022-08-01T18:57:48.574Z,99412.94
2022-08-01T19:01:50.125Z,99416.28
2022-08-01T19:05:51.682Z,99414.66
2022-08-01T19:09:53.161Z,99425.00
2022-08-01T19:13:55.418Z,99427.34
2022-08-01T19:17:56.944Z,99434.63
2022-08-01T19:21:58.449Z,99440.84
2022-08-01T19:26:04.199Z,99436.38
2022-08-01T19:30:07.096Z,99440.97
2022-08-01T19:34:12.299Z,99446.91
2022-08-01T19:38:15.196Z,99454.66
2022-08-01T19:42:17.837Z,99459.03
2022-08-01T19:46:19.696Z,99456.28
2022-08-01T19:50:21.320Z,99468.22
2022-08-01T19:54:29.798Z,99476.06
2022-08-01T19:58:33.545Z,99467.13
2022-08-01T20:02:36.482Z,99474.16
2022-08-01T20:06:38.362Z,99481.06
2022-08-01T20:10:41.029Z,99485.50
2022-08-01T20:14:43.911Z,99485.50
2022-08-01T20:18:45.397Z,99490.16
2022-08-01T20:22:49.651Z,99492.13
2022-08-01T20:26:54.573Z,99497.09
2022-08-01T20:31:03.511Z,99496.78
2022-08-01T20:35:08.437Z,99494.34
2022-08-01T20:39:13.235Z,99495.59
2022-08-01T20:43:21.226Z,99493.44
2022-08-01T20:47:24.384Z,99495.41
2022-08-01T20:51:27.641Z,99487.78
2022-08-01T20:55:41.082Z,99498.97
2022-08-01T20:59:55.421Z,99495.09
2022-08-01T21:04:16.804Z,99496.03
2022-08-01T21:08:42.809Z,99497.31
2022-08-01T21:12:50.464Z,99499.28
2022-08-01T21:17:00.190Z,99512.56
2022-08-01T21:21:10.378Z,99509.41
2022-08-01T21:25:17.798Z,99513.97
2022-08-01T21:29:22.376Z,99518.50
2022-08-01T21:33:26.429Z,99503.97
2022-08-01T21:37:30.902Z,99508.38
2022-08-01T21:42:04.141Z,99511.19
2022-08-01T21:45:57.897Z,99515.94
2022-08-01T21:50:02.430Z,99516.13
2022-08-01T21:54:15.661Z,99516.28
2022-08-01T21:58:42.095Z,99518.38
2022-08-01T22:03:28.677Z,99511.84
2022-08-01T22:07:34.793Z,99517.44
2022-08-01T22:11:37.876Z,99512.22
2022-08-01T22:15:59.911Z,99522.13
2022-08-01T22:20:03.128Z,99521.31
2022-08-01T22:24:06.565Z,99520.69
2022-08-01T22:28:10.238Z,99519.84
2022-08-01T22:32:14.661Z,99512.16
2022-08-01T22:36:17.091Z,99510.69
2022-08-01T22:40:18.506Z,99508.34
2022-08-01T22:44:30.266Z,99514.47
2022-08-01T22:48:41.461Z,99517.38
2022-08-01T22:52:55.178Z,99522.94
2022-08-01T22:57:01.283Z,99525.63
2022-08-01T23:01:06.540Z,99526.53
2022-08-01T23:05:12.014Z,99532.69
2022-08-01T23:09:14.554Z,99539.53
2022-08-01T23:13:17.473Z,99548.25
2022-08-01T23:17:28.918Z,99544.16
2022-08-01T23:21:59.027Z,99543.34
2022-08-01T23:26:23.722Z,99545.78
2022-08-01T23:30:27.952Z,99546.66
2022-08-01T23:34:29.422Z,99546.59
2022-08-01T23:38:30.926Z,99535.03
2022-08-01T23:42:32.489Z,99536.75
2022-08-01T23:46:33.898Z,99540.19
2022-08-01T23:50:35.622Z,99537.78
2022-08-01T23:54:37.269Z,99536.97
2022-08-01T23:58:39.166Z,99537.25
